Terminal Aerodrome Forecast
Issued by NWS

Current Version | Previous Version | Graphics & Text | Print | Product List | Glossary On
Versions: 1 2 3 4 5 6 7 8 9 10 11 12 13 14 15 16 17 18 19
000
FTUS41 KPBZ 161300 AAA
TAFMGW
TAF AMD
KMGW 161309Z 1613/1712 22004KT P6SM BKN011 OVC020
     FM161500 35004KT P6SM SCT011 BKN050
     FM162100 34006KT P6SM SKC
     FM171000 00000KT 2SM BR FEW250=

USA.gov is the U.S. government's official web portal to all federal, state and local government web resources and services.